sensor_id;sensor_type;location;lat;lon;timestamp;P1;durP1;ratioP1;P2;durP2;ratioP2
3068;SDS011;1545;51.728;8.796;2023-10-31T00:01:14;4.70;;;3.07;;
3068;SDS011;1545;51.728;8.796;2023-10-31T00:03:39;5.03;;;3.20;;
3068;SDS011;1545;51.728;8.796;2023-10-31T00:06:07;4.97;;;3.67;;
3068;SDS011;1545;51.728;8.796;2023-10-31T00:08:33;6.10;;;4.23;;
3068;SDS011;1545;51.728;8.796;2023-10-31T00:10:58;5.13;;;3.80;;
3068;SDS011;1545;51.728;8.796;2023-10-31T00:13:24;5.43;;;3.43;;
3068;SDS011;1545;51.728;8.796;2023-10-31T00:15:49;6.80;;;3.70;;
3068;SDS011;1545;51.728;8.796;2023-10-31T00:18:15;5.40;;;3.83;;
3068;SDS011;1545;51.728;8.796;2023-10-31T00:20:40;7.03;;;3.37;;
3068;SDS011;1545;51.728;8.796;2023-10-31T00:23:06;4.77;;;3.37;;
3068;SDS011;1545;51.728;8.796;2023-10-31T00:25:31;4.70;;;3.40;;
3068;SDS011;1545;51.728;8.796;2023-10-31T00:27:57;4.50;;;3.37;;
3068;SDS011;1545;51.728;8.796;2023-10-31T00:30:22;6.07;;;3.60;;
3068;SDS011;1545;51.728;8.796;2023-10-31T00:32:48;3.63;;;2.97;;
3068;SDS011;1545;51.728;8.796;2023-10-31T00:35:13;3.80;;;3.10;;
3068;SDS011;1545;51.728;8.796;2023-10-31T00:37:39;4.47;;;3.10;;
3068;SDS011;1545;51.728;8.796;2023-10-31T00:40:05;8.07;;;3.73;;
3068;SDS011;1545;51.728;8.796;2023-10-31T00:42:32;3.60;;;3.10;;
3068;SDS011;1545;51.728;8.796;2023-10-31T00:44:58;3.77;;;2.67;;
3068;SDS011;1545;51.728;8.796;2023-10-31T00:47:24;4.57;;;2.80;;
3068;SDS011;1545;51.728;8.796;2023-10-31T00:49:49;3.70;;;3.10;;
3068;SDS011;1545;51.728;8.796;2023-10-31T00:52:15;4.37;;;2.60;;
3068;SDS011;1545;51.728;8.796;2023-10-31T00:54:41;7.90;;;3.00;;
3068;SDS011;1545;51.728;8.796;2023-10-31T00:57:07;4.40;;;3.20;;
3068;SDS011;1545;51.728;8.796;2023-10-31T00:59:32;6.37;;;3.40;;
3068;SDS011;1545;51.728;8.796;2023-10-31T01:01:58;6.33;;;3.27;;
3068;SDS011;1545;51.728;8.796;2023-10-31T01:04:23;6.60;;;3.40;;
3068;SDS011;1545;51.728;8.796;2023-10-31T01:06:50;5.10;;;3.40;;
3068;SDS011;1545;51.728;8.796;2023-10-31T01:09:16;4.10;;;3.37;;
3068;SDS011;1545;51.728;8.796;2023-10-31T01:11:42;7.87;;;3.60;;
3068;SDS011;1545;51.728;8.796;2023-10-31T01:14:07;5.67;;;3.47;;
3068;SDS011;1545;51.728;8.796;2023-10-31T01:16:33;5.00;;;3.30;;
3068;SDS011;1545;51.728;8.796;2023-10-31T01:18:58;4.47;;;3.00;;
3068;SDS011;1545;51.728;8.796;2023-10-31T01:21:24;4.33;;;3.43;;
3068;SDS011;1545;51.728;8.796;2023-10-31T01:23:49;7.77;;;3.40;;
3068;SDS011;1545;51.728;8.796;2023-10-31T01:26:15;3.90;;;3.10;;
3068;SDS011;1545;51.728;8.796;2023-10-31T01:28:40;5.00;;;3.70;;
3068;SDS011;1545;51.728;8.796;2023-10-31T01:31:06;5.80;;;3.23;;
3068;SDS011;1545;51.728;8.796;2023-10-31T01:33:32;5.80;;;2.97;;
3068;SDS011;1545;51.728;8.796;2023-10-31T01:35:57;3.97;;;2.87;;
3068;SDS011;1545;51.728;8.796;2023-10-31T01:38:23;3.23;;;3.07;;
3068;SDS011;1545;51.728;8.796;2023-10-31T01:40:49;4.20;;;2.93;;
3068;SDS011;1545;51.728;8.796;2023-10-31T01:45:57;4.70;;;4.00;;
3068;SDS011;1545;51.728;8.796;2023-10-31T01:48:23;7.20;;;4.13;;
3068;SDS011;1545;51.728;8.796;2023-10-31T01:50:51;3.10;;;2.93;;
3068;SDS011;1545;51.728;8.796;2023-10-31T01:53:17;5.73;;;3.20;;
3068;SDS011;1545;51.728;8.796;2023-10-31T01:55:44;2.90;;;2.70;;
3068;SDS011;1545;51.728;8.796;2023-10-31T01:58:10;2.90;;;2.70;;
3068;SDS011;1545;51.728;8.796;2023-10-31T02:00:37;2.83;;;2.70;;
3068;SDS011;1545;51.728;8.796;2023-10-31T02:03:05;6.40;;;3.00;;
3068;SDS011;1545;51.728;8.796;2023-10-31T02:05:32;6.53;;;3.00;;
3068;SDS011;1545;51.728;8.796;2023-10-31T02:07:59;4.03;;;2.50;;
3068;SDS011;1545;51.728;8.796;2023-10-31T02:10:25;5.40;;;3.03;;
3068;SDS011;1545;51.728;8.796;2023-10-31T02:12:50;3.30;;;2.80;;
3068;SDS011;1545;51.728;8.796;2023-10-31T02:15:16;3.77;;;2.70;;
3068;SDS011;1545;51.728;8.796;2023-10-31T02:17:42;3.23;;;3.03;;
3068;SDS011;1545;51.728;8.796;2023-10-31T02:20:07;4.60;;;2.90;;
3068;SDS011;1545;51.728;8.796;2023-10-31T02:22:33;5.77;;;3.20;;
3068;SDS011;1545;51.728;8.796;2023-10-31T02:24:59;3.90;;;3.00;;
3068;SDS011;1545;51.728;8.796;2023-10-31T02:27:24;6.67;;;2.97;;
3068;SDS011;1545;51.728;8.796;2023-10-31T02:29:50;3.10;;;2.90;;
3068;SDS011;1545;51.728;8.796;2023-10-31T02:32:15;4.10;;;3.40;;
3068;SDS011;1545;51.728;8.796;2023-10-31T02:34:41;4.30;;;3.23;;
3068;SDS011;1545;51.728;8.796;2023-10-31T02:37:07;3.43;;;3.13;;
3068;SDS011;1545;51.728;8.796;2023-10-31T02:39:32;3.67;;;3.20;;
3068;SDS011;1545;51.728;8.796;2023-10-31T02:41:58;5.20;;;3.37;;
3068;SDS011;1545;51.728;8.796;2023-10-31T02:44:24;6.50;;;4.30;;
3068;SDS011;1545;51.728;8.796;2023-10-31T02:46:49;4.00;;;3.20;;
3068;SDS011;1545;51.728;8.796;2023-10-31T02:49:15;5.20;;;4.03;;
3068;SDS011;1545;51.728;8.796;2023-10-31T02:51:40;4.40;;;3.00;;
3068;SDS011;1545;51.728;8.796;2023-10-31T02:54:06;4.53;;;2.90;;
3068;SDS011;1545;51.728;8.796;2023-10-31T02:56:31;6.80;;;2.77;;
3068;SDS011;1545;51.728;8.796;2023-10-31T02:58:57;4.17;;;2.73;;
3068;SDS011;1545;51.728;8.796;2023-10-31T03:01:22;3.97;;;3.10;;
3068;SDS011;1545;51.728;8.796;2023-10-31T03:03:48;4.80;;;2.73;;
3068;SDS011;1545;51.728;8.796;2023-10-31T03:06:13;2.83;;;2.70;;
3068;SDS011;1545;51.728;8.796;2023-10-31T03:08:39;3.23;;;2.80;;
3068;SDS011;1545;51.728;8.796;2023-10-31T03:11:04;6.63;;;3.57;;
3068;SDS011;1545;51.728;8.796;2023-10-31T03:13:30;5.70;;;3.70;;
3068;SDS011;1545;51.728;8.796;2023-10-31T03:15:55;6.87;;;3.83;;
3068;SDS011;1545;51.728;8.796;2023-10-31T03:18:21;14.07;;;4.87;;
3068;SDS011;1545;51.728;8.796;2023-10-31T03:20:48;7.17;;;4.57;;
3068;SDS011;1545;51.728;8.796;2023-10-31T03:23:13;8.93;;;4.40;;
3068;SDS011;1545;51.728;8.796;2023-10-31T03:25:39;6.13;;;3.90;;
3068;SDS011;1545;51.728;8.796;2023-10-31T03:28:07;7.93;;;4.63;;
3068;SDS011;1545;51.728;8.796;2023-10-31T03:30:44;9.07;;;4.67;;
3068;SDS011;1545;51.728;8.796;2023-10-31T03:33:10;8.33;;;5.20;;
3068;SDS011;1545;51.728;8.796;2023-10-31T03:35:36;6.93;;;5.40;;
3068;SDS011;1545;51.728;8.796;2023-10-31T03:38:01;7.20;;;5.50;;
3068;SDS011;1545;51.728;8.796;2023-10-31T03:40:27;9.43;;;5.80;;
3068;SDS011;1545;51.728;8.796;2023-10-31T03:42:53;8.30;;;5.70;;
3068;SDS011;1545;51.728;8.796;2023-10-31T03:45:18;17.83;;;5.63;;
3068;SDS011;1545;51.728;8.796;2023-10-31T03:47:44;10.10;;;5.80;;
3068;SDS011;1545;51.728;8.796;2023-10-31T03:50:09;9.67;;;7.20;;
3068;SDS011;1545;51.728;8.796;2023-10-31T03:52:35;9.70;;;6.50;;
3068;SDS011;1545;51.728;8.796;2023-10-31T03:55:00;11.43;;;7.80;;
3068;SDS011;1545;51.728;8.796;2023-10-31T03:57:26;11.77;;;8.47;;
3068;SDS011;1545;51.728;8.796;2023-10-31T03:59:52;10.63;;;8.70;;
3068;SDS011;1545;51.728;8.796;2023-10-31T04:02:17;11.77;;;8.90;;
3068;SDS011;1545;51.728;8.796;2023-10-31T04:04:43;13.43;;;8.90;;
3068;SDS011;1545;51.728;8.796;2023-10-31T04:07:08;13.30;;;9.27;;
3068;SDS011;1545;51.728;8.796;2023-10-31T04:09:34;14.17;;;9.17;;
3068;SDS011;1545;51.728;8.796;2023-10-31T04:11:59;16.33;;;9.33;;
3068;SDS011;1545;51.728;8.796;2023-10-31T04:14:25;13.07;;;9.27;;
3068;SDS011;1545;51.728;8.796;2023-10-31T04:16:50;13.43;;;8.93;;
3068;SDS011;1545;51.728;8.796;2023-10-31T04:19:16;11.90;;;8.77;;
3068;SDS011;1545;51.728;8.796;2023-10-31T04:21:41;11.80;;;9.10;;
3068;SDS011;1545;51.728;8.796;2023-10-31T04:24:07;15.73;;;8.60;;
3068;SDS011;1545;51.728;8.796;2023-10-31T04:26:32;14.00;;;8.60;;
3068;SDS011;1545;51.728;8.796;2023-10-31T04:28:58;14.57;;;8.90;;
3068;SDS011;1545;51.728;8.796;2023-10-31T04:31:23;13.93;;;8.80;;
3068;SDS011;1545;51.728;8.796;2023-10-31T04:33:49;11.27;;;8.27;;
3068;SDS011;1545;51.728;8.796;2023-10-31T04:36:15;13.20;;;8.27;;
3068;SDS011;1545;51.728;8.796;2023-10-31T04:38:40;10.43;;;7.63;;
3068;SDS011;1545;51.728;8.796;2023-10-31T04:41:07;12.80;;;8.30;;
3068;SDS011;1545;51.728;8.796;2023-10-31T04:43:34;10.83;;;7.63;;
3068;SDS011;1545;51.728;8.796;2023-10-31T04:46:00;13.50;;;8.77;;
3068;SDS011;1545;51.728;8.796;2023-10-31T04:48:25;10.20;;;7.93;;
3068;SDS011;1545;51.728;8.796;2023-10-31T04:50:51;11.33;;;7.87;;
3068;SDS011;1545;51.728;8.796;2023-10-31T04:53:16;16.10;;;8.83;;
3068;SDS011;1545;51.728;8.796;2023-10-31T04:55:42;12.07;;;7.53;;
3068;SDS011;1545;51.728;8.796;2023-10-31T04:58:07;11.77;;;7.53;;
3068;SDS011;1545;51.728;8.796;2023-10-31T05:00:33;12.27;;;7.20;;
3068;SDS011;1545;51.728;8.796;2023-10-31T05:02:58;11.40;;;6.57;;
3068;SDS011;1545;51.728;8.796;2023-10-31T05:05:26;12.70;;;7.10;;
3068;SDS011;1545;51.728;8.796;2023-10-31T05:07:51;11.43;;;7.23;;
3068;SDS011;1545;51.728;8.796;2023-10-31T05:10:17;11.90;;;7.73;;
3068;SDS011;1545;51.728;8.796;2023-10-31T05:12:42;11.33;;;7.80;;
3068;SDS011;1545;51.728;8.796;2023-10-31T05:15:08;9.63;;;7.60;;
3068;SDS011;1545;51.728;8.796;2023-10-31T05:17:34;15.17;;;9.13;;
3068;SDS011;1545;51.728;8.796;2023-10-31T05:19:59;13.03;;;8.83;;
3068;SDS011;1545;51.728;8.796;2023-10-31T05:22:25;14.10;;;8.97;;
3068;SDS011;1545;51.728;8.796;2023-10-31T05:24:50;13.60;;;8.90;;
3068;SDS011;1545;51.728;8.796;2023-10-31T05:27:16;15.63;;;9.53;;
3068;SDS011;1545;51.728;8.796;2023-10-31T05:29:41;16.30;;;9.73;;
3068;SDS011;1545;51.728;8.796;2023-10-31T05:32:07;14.60;;;9.90;;
3068;SDS011;1545;51.728;8.796;2023-10-31T05:34:32;16.77;;;10.37;;
3068;SDS011;1545;51.728;8.796;2023-10-31T05:36:58;16.87;;;10.20;;
3068;SDS011;1545;51.728;8.796;2023-10-31T05:39:23;18.97;;;11.87;;
3068;SDS011;1545;51.728;8.796;2023-10-31T05:41:49;19.60;;;12.37;;
3068;SDS011;1545;51.728;8.796;2023-10-31T05:44:14;21.03;;;12.70;;
3068;SDS011;1545;51.728;8.796;2023-10-31T05:46:40;20.57;;;12.63;;
3068;SDS011;1545;51.728;8.796;2023-10-31T05:49:09;24.50;;;13.67;;
3068;SDS011;1545;51.728;8.796;2023-10-31T05:51:35;24.90;;;13.57;;
3068;SDS011;1545;51.728;8.796;2023-10-31T05:54:01;24.33;;;13.30;;
3068;SDS011;1545;51.728;8.796;2023-10-31T05:56:27;22.87;;;12.37;;
3068;SDS011;1545;51.728;8.796;2023-10-31T05:58:52;20.23;;;12.40;;
3068;SDS011;1545;51.728;8.796;2023-10-31T06:01:18;19.80;;;11.90;;
3068;SDS011;1545;51.728;8.796;2023-10-31T06:03:43;17.07;;;9.90;;
3068;SDS011;1545;51.728;8.796;2023-10-31T06:06:09;17.60;;;8.73;;
3068;SDS011;1545;51.728;8.796;2023-10-31T06:08:36;16.20;;;8.80;;
3068;SDS011;1545;51.728;8.796;2023-10-31T06:11:02;14.20;;;8.57;;
3068;SDS011;1545;51.728;8.796;2023-10-31T06:13:29;14.63;;;8.47;;
3068;SDS011;1545;51.728;8.796;2023-10-31T06:15:57;14.50;;;8.73;;
3068;SDS011;1545;51.728;8.796;2023-10-31T06:18:23;13.63;;;9.10;;
3068;SDS011;1545;51.728;8.796;2023-10-31T06:20:49;13.20;;;8.17;;
3068;SDS011;1545;51.728;8.796;2023-10-31T06:23:14;11.60;;;8.30;;
3068;SDS011;1545;51.728;8.796;2023-10-31T06:25:40;13.27;;;8.70;;
3068;SDS011;1545;51.728;8.796;2023-10-31T06:28:05;12.13;;;7.97;;
3068;SDS011;1545;51.728;8.796;2023-10-31T06:30:31;14.33;;;8.50;;
3068;SDS011;1545;51.728;8.796;2023-10-31T06:32:58;12.27;;;8.53;;
3068;SDS011;1545;51.728;8.796;2023-10-31T06:35:25;13.33;;;8.63;;
3068;SDS011;1545;51.728;8.796;2023-10-31T06:37:51;10.90;;;7.53;;
3068;SDS011;1545;51.728;8.796;2023-10-31T06:40:17;13.47;;;7.40;;
3068;SDS011;1545;51.728;8.796;2023-10-31T06:42:43;12.77;;;7.67;;
3068;SDS011;1545;51.728;8.796;2023-10-31T06:45:08;10.77;;;6.77;;
3068;SDS011;1545;51.728;8.796;2023-10-31T06:47:34;9.27;;;6.70;;
3068;SDS011;1545;51.728;8.796;2023-10-31T06:49:59;9.67;;;7.10;;
3068;SDS011;1545;51.728;8.796;2023-10-31T06:52:25;10.90;;;6.87;;
3068;SDS011;1545;51.728;8.796;2023-10-31T06:54:50;11.33;;;7.00;;
3068;SDS011;1545;51.728;8.796;2023-10-31T06:57:16;12.00;;;8.00;;
3068;SDS011;1545;51.728;8.796;2023-10-31T06:59:42;12.87;;;8.70;;
3068;SDS011;1545;51.728;8.796;2023-10-31T07:02:07;22.20;;;10.47;;
3068;SDS011;1545;51.728;8.796;2023-10-31T07:04:33;19.30;;;10.57;;
3068;SDS011;1545;51.728;8.796;2023-10-31T07:06:59;18.57;;;10.97;;
3068;SDS011;1545;51.728;8.796;2023-10-31T07:09:25;18.63;;;10.80;;
3068;SDS011;1545;51.728;8.796;2023-10-31T07:11:51;17.13;;;10.67;;
3068;SDS011;1545;51.728;8.796;2023-10-31T07:14:16;15.87;;;10.50;;
3068;SDS011;1545;51.728;8.796;2023-10-31T07:16:42;15.33;;;10.83;;
3068;SDS011;1545;51.728;8.796;2023-10-31T07:19:09;19.27;;;11.67;;
3068;SDS011;1545;51.728;8.796;2023-10-31T07:21:35;18.50;;;11.73;;
3068;SDS011;1545;51.728;8.796;2023-10-31T07:24:00;21.23;;;12.10;;
3068;SDS011;1545;51.728;8.796;2023-10-31T07:26:26;18.80;;;11.77;;
3068;SDS011;1545;51.728;8.796;2023-10-31T07:28:52;20.63;;;12.63;;
3068;SDS011;1545;51.728;8.796;2023-10-31T07:31:18;19.57;;;11.97;;
3068;SDS011;1545;51.728;8.796;2023-10-31T07:33:44;18.83;;;12.47;;
3068;SDS011;1545;51.728;8.796;2023-10-31T07:36:10;22.57;;;11.83;;
3068;SDS011;1545;51.728;8.796;2023-10-31T07:38:36;22.03;;;13.00;;
3068;SDS011;1545;51.728;8.796;2023-10-31T07:41:01;22.47;;;14.43;;
3068;SDS011;1545;51.728;8.796;2023-10-31T07:43:27;26.83;;;14.00;;
3068;SDS011;1545;51.728;8.796;2023-10-31T07:45:53;27.07;;;14.17;;
3068;SDS011;1545;51.728;8.796;2023-10-31T07:48:18;21.20;;;13.47;;
3068;SDS011;1545;51.728;8.796;2023-10-31T07:50:44;24.13;;;14.37;;
3068;SDS011;1545;51.728;8.796;2023-10-31T07:53:10;24.27;;;14.47;;
3068;SDS011;1545;51.728;8.796;2023-10-31T07:55:35;23.27;;;14.57;;
3068;SDS011;1545;51.728;8.796;2023-10-31T07:58:01;29.80;;;14.33;;
3068;SDS011;1545;51.728;8.796;2023-10-31T08:00:27;23.53;;;15.10;;
3068;SDS011;1545;51.728;8.796;2023-10-31T08:02:52;31.70;;;15.70;;
3068;SDS011;1545;51.728;8.796;2023-10-31T08:05:18;27.07;;;15.73;;
3068;SDS011;1545;51.728;8.796;2023-10-31T08:07:43;23.13;;;14.57;;
3068;SDS011;1545;51.728;8.796;2023-10-31T08:10:09;27.73;;;16.20;;
3068;SDS011;1545;51.728;8.796;2023-10-31T08:12:35;24.50;;;15.47;;
3068;SDS011;1545;51.728;8.796;2023-10-31T08:15:01;36.50;;;15.93;;
3068;SDS011;1545;51.728;8.796;2023-10-31T08:17:26;31.53;;;16.90;;
3068;SDS011;1545;51.728;8.796;2023-10-31T08:19:52;33.60;;;16.47;;
3068;SDS011;1545;51.728;8.796;2023-10-31T08:22:17;31.20;;;17.03;;
3068;SDS011;1545;51.728;8.796;2023-10-31T08:24:43;28.47;;;16.47;;
3068;SDS011;1545;51.728;8.796;2023-10-31T08:27:09;35.53;;;14.77;;
3068;SDS011;1545;51.728;8.796;2023-10-31T08:29:35;31.27;;;15.10;;
3068;SDS011;1545;51.728;8.796;2023-10-31T08:32:00;27.37;;;14.97;;
3068;SDS011;1545;51.728;8.796;2023-10-31T08:34:26;21.63;;;13.97;;
3068;SDS011;1545;51.728;8.796;2023-10-31T08:36:51;22.10;;;13.13;;
3068;SDS011;1545;51.728;8.796;2023-10-31T08:39:17;21.83;;;12.93;;
3068;SDS011;1545;51.728;8.796;2023-10-31T08:41:53;19.90;;;12.37;;
3068;SDS011;1545;51.728;8.796;2023-10-31T08:44:19;22.37;;;12.97;;
3068;SDS011;1545;51.728;8.796;2023-10-31T08:46:44;24.17;;;12.33;;
3068;SDS011;1545;51.728;8.796;2023-10-31T08:49:10;22.57;;;12.67;;
3068;SDS011;1545;51.728;8.796;2023-10-31T08:51:36;18.97;;;11.20;;
3068;SDS011;1545;51.728;8.796;2023-10-31T08:54:02;20.30;;;11.77;;
3068;SDS011;1545;51.728;8.796;2023-10-31T08:56:28;16.73;;;11.17;;
3068;SDS011;1545;51.728;8.796;2023-10-31T08:58:53;18.23;;;11.23;;
3068;SDS011;1545;51.728;8.796;2023-10-31T09:01:19;19.77;;;11.30;;
3068;SDS011;1545;51.728;8.796;2023-10-31T09:03:45;20.03;;;12.17;;
3068;SDS011;1545;51.728;8.796;2023-10-31T09:06:10;18.60;;;11.70;;
3068;SDS011;1545;51.728;8.796;2023-10-31T09:08:36;20.33;;;12.27;;
3068;SDS011;1545;51.728;8.796;2023-10-31T09:11:03;18.97;;;11.60;;
3068;SDS011;1545;51.728;8.796;2023-10-31T09:13:29;20.87;;;13.27;;
3068;SDS011;1545;51.728;8.796;2023-10-31T09:15:55;20.03;;;12.90;;
3068;SDS011;1545;51.728;8.796;2023-10-31T09:18:22;22.37;;;13.83;;
3068;SDS011;1545;51.728;8.796;2023-10-31T09:20:47;22.97;;;14.73;;
3068;SDS011;1545;51.728;8.796;2023-10-31T09:23:13;22.63;;;14.30;;
3068;SDS011;1545;51.728;8.796;2023-10-31T09:25:38;22.87;;;14.70;;
3068;SDS011;1545;51.728;8.796;2023-10-31T09:28:04;24.17;;;15.53;;
3068;SDS011;1545;51.728;8.796;2023-10-31T09:30:29;20.23;;;14.73;;
3068;SDS011;1545;51.728;8.796;2023-10-31T09:32:58;23.93;;;14.70;;
3068;SDS011;1545;51.728;8.796;2023-10-31T09:35:23;23.37;;;14.90;;
3068;SDS011;1545;51.728;8.796;2023-10-31T09:37:50;25.43;;;15.03;;
3068;SDS011;1545;51.728;8.796;2023-10-31T09:40:15;23.10;;;14.90;;
3068;SDS011;1545;51.728;8.796;2023-10-31T09:42:41;21.80;;;14.57;;
3068;SDS011;1545;51.728;8.796;2023-10-31T09:45:07;24.30;;;15.20;;
3068;SDS011;1545;51.728;8.796;2023-10-31T09:47:33;21.40;;;14.67;;
3068;SDS011;1545;51.728;8.796;2023-10-31T09:49:59;24.90;;;16.07;;
3068;SDS011;1545;51.728;8.796;2023-10-31T09:52:24;27.87;;;15.03;;
3068;SDS011;1545;51.728;8.796;2023-10-31T09:54:50;24.33;;;15.80;;
3068;SDS011;1545;51.728;8.796;2023-10-31T09:57:18;21.33;;;15.07;;
3068;SDS011;1545;51.728;8.796;2023-10-31T09:59:43;25.87;;;16.80;;
3068;SDS011;1545;51.728;8.796;2023-10-31T10:02:09;29.50;;;15.40;;
3068;SDS011;1545;51.728;8.796;2023-10-31T10:04:35;25.70;;;16.90;;
3068;SDS011;1545;51.728;8.796;2023-10-31T10:07:03;30.77;;;17.40;;
3068;SDS011;1545;51.728;8.796;2023-10-31T10:09:29;27.17;;;15.77;;
3068;SDS011;1545;51.728;8.796;2023-10-31T10:11:58;21.23;;;13.70;;
3068;SDS011;1545;51.728;8.796;2023-10-31T10:14:25;19.33;;;12.63;;
3068;SDS011;1545;51.728;8.796;2023-10-31T10:16:53;20.20;;;12.80;;
3068;SDS011;1545;51.728;8.796;2023-10-31T10:19:22;19.80;;;12.70;;
3068;SDS011;1545;51.728;8.796;2023-10-31T10:24:16;16.77;;;11.33;;
3068;SDS011;1545;51.728;8.796;2023-10-31T10:26:42;20.87;;;10.90;;
3068;SDS011;1545;51.728;8.796;2023-10-31T10:29:07;14.47;;;9.67;;
3068;SDS011;1545;51.728;8.796;2023-10-31T10:31:33;16.53;;;10.10;;
3068;SDS011;1545;51.728;8.796;2023-10-31T10:33:58;12.93;;;9.23;;
3068;SDS011;1545;51.728;8.796;2023-10-31T10:36:26;14.50;;;9.57;;
3068;SDS011;1545;51.728;8.796;2023-10-31T10:38:53;13.40;;;8.77;;
3068;SDS011;1545;51.728;8.796;2023-10-31T10:41:25;11.57;;;8.50;;
3068;SDS011;1545;51.728;8.796;2023-10-31T10:43:55;16.17;;;9.40;;
3068;SDS011;1545;51.728;8.796;2023-10-31T10:46:25;15.20;;;8.23;;
3068;SDS011;1545;51.728;8.796;2023-10-31T10:48:55;11.57;;;8.40;;
3068;SDS011;1545;51.728;8.796;2023-10-31T10:51:25;15.07;;;8.77;;
3068;SDS011;1545;51.728;8.796;2023-10-31T10:54:11;13.17;;;8.83;;
3068;SDS011;1545;51.728;8.796;2023-10-31T10:56:46;14.40;;;9.60;;
3068;SDS011;1545;51.728;8.796;2023-10-31T10:59:41;13.70;;;9.03;;
3068;SDS011;1545;51.728;8.796;2023-10-31T11:02:08;17.37;;;10.07;;
3068;SDS011;1545;51.728;8.796;2023-10-31T11:04:35;16.07;;;9.17;;
3068;SDS011;1545;51.728;8.796;2023-10-31T11:07:02;14.53;;;8.77;;
3068;SDS011;1545;51.728;8.796;2023-10-31T11:09:28;14.37;;;9.43;;
3068;SDS011;1545;51.728;8.796;2023-10-31T11:11:55;13.97;;;9.00;;
3068;SDS011;1545;51.728;8.796;2023-10-31T11:14:22;14.27;;;9.10;;
3068;SDS011;1545;51.728;8.796;2023-10-31T11:16:54;18.63;;;9.67;;
3068;SDS011;1545;51.728;8.796;2023-10-31T11:19:24;14.90;;;9.30;;
3068;SDS011;1545;51.728;8.796;2023-10-31T11:21:59;12.37;;;9.10;;
3068;SDS011;1545;51.728;8.796;2023-10-31T11:24:30;19.93;;;10.10;;
3068;SDS011;1545;51.728;8.796;2023-10-31T11:27:00;17.40;;;9.10;;
3068;SDS011;1545;51.728;8.796;2023-10-31T11:29:27;12.77;;;8.77;;
3068;SDS011;1545;51.728;8.796;2023-10-31T11:31:55;18.73;;;8.53;;
3068;SDS011;1545;51.728;8.796;2023-10-31T11:34:25;13.03;;;8.40;;
3068;SDS011;1545;51.728;8.796;2023-10-31T11:36:52;14.20;;;7.60;;
3068;SDS011;1545;51.728;8.796;2023-10-31T11:39:18;13.07;;;7.57;;
3068;SDS011;1545;51.728;8.796;2023-10-31T11:41:54;18.13;;;7.50;;
3068;SDS011;1545;51.728;8.796;2023-10-31T11:44:27;11.27;;;7.73;;
3068;SDS011;1545;51.728;8.796;2023-10-31T11:46:52;11.87;;;6.47;;
3068;SDS011;1545;51.728;8.796;2023-10-31T11:49:45;15.47;;;6.90;;
3068;SDS011;1545;51.728;8.796;2023-10-31T11:52:15;11.60;;;7.37;;
3068;SDS011;1545;51.728;8.796;2023-10-31T11:54:42;16.73;;;7.57;;
3068;SDS011;1545;51.728;8.796;2023-10-31T11:57:08;9.93;;;7.27;;
3068;SDS011;1545;51.728;8.796;2023-10-31T11:59:37;14.40;;;8.07;;
3068;SDS011;1545;51.728;8.796;2023-10-31T12:02:13;10.23;;;7.27;;
3068;SDS011;1545;51.728;8.796;2023-10-31T12:04:43;11.63;;;8.07;;
3068;SDS011;1545;51.728;8.796;2023-10-31T12:07:09;12.77;;;7.90;;
3068;SDS011;1545;51.728;8.796;2023-10-31T12:09:45;13.73;;;8.20;;
3068;SDS011;1545;51.728;8.796;2023-10-31T12:12:12;13.70;;;8.20;;
3068;SDS011;1545;51.728;8.796;2023-10-31T12:14:37;13.03;;;8.53;;
3068;SDS011;1545;51.728;8.796;2023-10-31T12:17:06;20.50;;;9.10;;
3068;SDS011;1545;51.728;8.796;2023-10-31T12:19:32;13.70;;;8.33;;
3068;SDS011;1545;51.728;8.796;2023-10-31T12:21:58;20.17;;;7.87;;
3068;SDS011;1545;51.728;8.796;2023-10-31T12:24:23;19.07;;;8.53;;
3068;SDS011;1545;51.728;8.796;2023-10-31T12:26:49;17.17;;;7.97;;
3068;SDS011;1545;51.728;8.796;2023-10-31T12:29:17;13.17;;;7.80;;
3068;SDS011;1545;51.728;8.796;2023-10-31T12:34:14;12.13;;;7.83;;
3068;SDS011;1545;51.728;8.796;2023-10-31T12:36:40;15.00;;;8.07;;
3068;SDS011;1545;51.728;8.796;2023-10-31T12:39:10;15.97;;;9.00;;
3068;SDS011;1545;51.728;8.796;2023-10-31T12:41:37;17.80;;;8.47;;
3068;SDS011;1545;51.728;8.796;2023-10-31T12:44:06;20.43;;;7.70;;
3068;SDS011;1545;51.728;8.796;2023-10-31T12:46:38;15.17;;;8.23;;
3068;SDS011;1545;51.728;8.796;2023-10-31T12:49:10;15.00;;;7.40;;
3068;SDS011;1545;51.728;8.796;2023-10-31T12:51:38;13.23;;;7.80;;
3068;SDS011;1545;51.728;8.796;2023-10-31T12:54:04;15.63;;;8.00;;
3068;SDS011;1545;51.728;8.796;2023-10-31T12:56:37;12.37;;;8.00;;
3068;SDS011;1545;51.728;8.796;2023-10-31T12:59:04;17.93;;;8.07;;
3068;SDS011;1545;51.728;8.796;2023-10-31T13:01:32;15.27;;;7.80;;
3068;SDS011;1545;51.728;8.796;2023-10-31T13:03:59;17.90;;;8.33;;
3068;SDS011;1545;51.728;8.796;2023-10-31T13:06:25;14.40;;;7.70;;
3068;SDS011;1545;51.728;8.796;2023-10-31T13:08:50;13.47;;;8.47;;
3068;SDS011;1545;51.728;8.796;2023-10-31T13:11:16;13.23;;;8.40;;
3068;SDS011;1545;51.728;8.796;2023-10-31T13:13:42;19.90;;;8.83;;
3068;SDS011;1545;51.728;8.796;2023-10-31T13:16:07;16.83;;;8.87;;
3068;SDS011;1545;51.728;8.796;2023-10-31T13:18:33;21.07;;;8.77;;
3068;SDS011;1545;51.728;8.796;2023-10-31T13:21:00;15.67;;;8.73;;
3068;SDS011;1545;51.728;8.796;2023-10-31T13:23:26;18.23;;;9.53;;
3068;SDS011;1545;51.728;8.796;2023-10-31T13:25:51;15.67;;;9.07;;
3068;SDS011;1545;51.728;8.796;2023-10-31T13:28:16;21.90;;;9.43;;
3068;SDS011;1545;51.728;8.796;2023-10-31T13:30:42;19.30;;;8.73;;
3068;SDS011;1545;51.728;8.796;2023-10-31T13:33:08;17.10;;;8.83;;
3068;SDS011;1545;51.728;8.796;2023-10-31T13:35:34;28.40;;;8.90;;
3068;SDS011;1545;51.728;8.796;2023-10-31T13:37:59;20.20;;;8.67;;
3068;SDS011;1545;51.728;8.796;2023-10-31T13:40:25;19.17;;;8.90;;
3068;SDS011;1545;51.728;8.796;2023-10-31T13:42:51;19.87;;;9.70;;
3068;SDS011;1545;51.728;8.796;2023-10-31T13:45:16;17.53;;;8.47;;
3068;SDS011;1545;51.728;8.796;2023-10-31T13:47:42;21.37;;;8.60;;
3068;SDS011;1545;51.728;8.796;2023-10-31T13:50:07;19.50;;;8.00;;
3068;SDS011;1545;51.728;8.796;2023-10-31T13:52:33;16.40;;;8.83;;
3068;SDS011;1545;51.728;8.796;2023-10-31T13:54:59;18.37;;;8.20;;
3068;SDS011;1545;51.728;8.796;2023-10-31T13:57:24;15.70;;;7.80;;
3068;SDS011;1545;51.728;8.796;2023-10-31T13:59:50;16.60;;;7.67;;
3068;SDS011;1545;51.728;8.796;2023-10-31T14:02:16;21.50;;;7.60;;
3068;SDS011;1545;51.728;8.796;2023-10-31T14:04:42;24.57;;;10.73;;
3068;SDS011;1545;51.728;8.796;2023-10-31T14:07:07;17.17;;;9.00;;
3068;SDS011;1545;51.728;8.796;2023-10-31T14:09:33;19.27;;;8.00;;
3068;SDS011;1545;51.728;8.796;2023-10-31T14:11:59;21.33;;;8.83;;
3068;SDS011;1545;51.728;8.796;2023-10-31T14:14:24;22.20;;;9.57;;
3068;SDS011;1545;51.728;8.796;2023-10-31T14:16:50;21.20;;;9.20;;
3068;SDS011;1545;51.728;8.796;2023-10-31T14:19:15;21.90;;;9.50;;
3068;SDS011;1545;51.728;8.796;2023-10-31T14:21:41;20.17;;;9.30;;
3068;SDS011;1545;51.728;8.796;2023-10-31T14:24:07;16.20;;;8.67;;
3068;SDS011;1545;51.728;8.796;2023-10-31T14:26:33;17.30;;;8.17;;
3068;SDS011;1545;51.728;8.796;2023-10-31T14:29:00;19.50;;;8.40;;
3068;SDS011;1545;51.728;8.796;2023-10-31T14:31:26;12.93;;;8.47;;
3068;SDS011;1545;51.728;8.796;2023-10-31T14:33:51;17.20;;;8.27;;
3068;SDS011;1545;51.728;8.796;2023-10-31T14:36:17;17.87;;;8.13;;
3068;SDS011;1545;51.728;8.796;2023-10-31T14:38:43;14.83;;;8.40;;
3068;SDS011;1545;51.728;8.796;2023-10-31T14:41:08;22.07;;;9.30;;
3068;SDS011;1545;51.728;8.796;2023-10-31T14:43:34;19.37;;;8.40;;
3068;SDS011;1545;51.728;8.796;2023-10-31T14:46:00;17.10;;;8.50;;
3068;SDS011;1545;51.728;8.796;2023-10-31T14:48:27;21.57;;;11.43;;
3068;SDS011;1545;51.728;8.796;2023-10-31T14:50:52;15.63;;;8.17;;
3068;SDS011;1545;51.728;8.796;2023-10-31T14:53:18;20.40;;;8.53;;
3068;SDS011;1545;51.728;8.796;2023-10-31T14:55:46;22.50;;;9.93;;
3068;SDS011;1545;51.728;8.796;2023-10-31T14:58:12;18.73;;;8.67;;
3068;SDS011;1545;51.728;8.796;2023-10-31T15:00:38;22.50;;;9.57;;
3068;SDS011;1545;51.728;8.796;2023-10-31T15:03:05;16.33;;;8.27;;